KMWH/MWH METAR and TAF weather

Enter ICAO airport designator
Station Type Date Time Source
KMWH METAR 2018/12/19 09:52 UTC NOAA

KMWH 190952Z AUTO 28004KT 10SM CLR 04/M01 A3009 RMK AO2 SLP194 T00441011


Station Type Date Time Source
KMWH Decoded METAR 2018/12/19 09:52 UTC NOAA

GRANT COUNTY AIRPORT, WA, United States (KMWH) 47-12N 119-19W 362M
Dec 19, 2018 - 04:52 AM EST / 2018.12.19 0952 UTC
Wind: from the W (280 degrees) at 5 MPH (4 KT):0
Visibility: 10 mile(s):0
Sky conditions: clear
Temperature: 39.9 F (4.4 C)
Dew Point: 30.0 F (-1.1 C)
Relative Humidity: 67%
Pressure (altimeter): 30.09 in. Hg (1018 hPa)
ob: KMWH 190952Z AUTO 28004KT 10SM CLR 04/M01 A3009 RMK AO2 SLP194 T00441011
cycle: 10

Station Type Date Time Source
KMWH TAF 2018/12/19 06:39 UTC NOAA

TAF KMWH 190537Z 1906/2006 21011KT P6SM FEW100 SCT120 WS020/27040KT
FM191100 22011KT P6SM FEW005 SCT150 WS020/27035KT
FM191300 20009KT P6SM SCT005
FM191900 20007KT P6SM FEW015 BKN120
FM200000 16006KT P6SM FEW015 BKN070 BKN110


Example: see airport list